LFOB 210400Z AUTO 34008KT CAVOK 01/00 Q1037 TEMPO BKN010

ElémentsDécodage
LFOB Station météo située sur l'aérodrome de BEAUVAIS Tillé
210400Z émis le 21 du mois à 04h00 UTC
AUTO Bulletin édité par un automate
34008KT vent du 340°, 08 noeuds
CAVOK Ceiling And Visibility OK
- Visibilité de 10 Km ou plus
- Pas de nuage au-dessous de 1500m ou au-dessous de l'altitude minimale du secteur la plus élevée (si>1500m) et absence de CB
- pas de temps présent significatif
01/00 température 01°C, point de rosée 00°C
 soit une humidité relative de 93%
Q1037 la pression au niveau de la mer (QNH) est de 1037 hPa
TEMPO fluctuation temporaire prévue
BKN010 nuages morcelés (5/8 à 7/8) à 1000 pieds